Home > Products > Valid Products > TAF

000
FTUS42 TJSJ 050528
TAFKPK
TAF
TKPK 050528Z 0506/0606 07012KT P6SM FEW022
     FM051200 08017KT P6SM FEW022
     FM052200 06010KT P6SM SCT020
      AMD NOT SKED TIL 051100=



000
FTUS42 TJSJ 050528
TAFISX
TAF
TISX 050528Z 0506/0606 08012KT P6SM FEW022
     FM051400 09018KT P6SM FEW022 SCT050
     FM052300 08013KT P6SM VCSH FEW035=



000
FTUS42 TJSJ 050528
TAFNCM
TAF
TNCM 050528Z 0506/0606 09012KT P6SM SCT021
     FM051200 09014G22KT P6SM FEW018
     FM052200 08010KT P6SM SCT022=



000
FTUS42 TJSJ 050528
TAFJBQ
TAF
TJBQ 050528Z 0506/0606 10011KT P6SM FEW025
     FM051400 08018KT P6SM FEW025 SCT050
     FM052300 09008KT P6SM SCT025
      AMD NOT SKED TIL 051100=



000
FTUS42 TJSJ 050528
TAFJPS
TAF
TJPS 050528Z 0506/0606 08008KT P6SM FEW030
     FM051400 14014KT P6SM FEW030
     FM052330 07009KT P6SM FEW030
      AMD NOT SKED 0512/0603=



000
FTUS42 TJSJ 050528
TAFJSJ
TAF
TJSJ 050528Z 0506/0606 08011KT P6SM SCT022 SCT080
     FM051400 07018KT P6SM FEW025 SCT050
     FM052300 08012KT P6SM FEW025 SCT050=



000
FTUS42 TJSJ 050528
TAFJBQ
TAF
TJBQ 050528Z 0506/0606 10011KT P6SM FEW025
     FM051400 08018KT P6SM FEW025 SCT050
     FM052300 09008KT P6SM SCT025
      AMD NOT SKED TIL 051100=



000
FTUS42 TJSJ 050528
TAFJSJ
TAF
TJSJ 050528Z 0506/0606 08011KT P6SM SCT022 SCT080
     FM051400 07018KT P6SM FEW025 SCT050
     FM052300 08012KT P6SM FEW025 SCT050=



000
FTUS42 TJSJ 050528
TAFJMZ
TAF
TJMZ 050528Z 0506/0606 VRB06KT P6SM FEW030
     FM051400 27014KT P6SM FEW025 SCT050
     FM052200 08011KT P6SM FEW040
      AMD NOT SKED=



000
FTUS42 TJSJ 050528
TAFJPS
TAF
TJPS 050528Z 0506/0606 08008KT P6SM FEW030
     FM051400 14014KT P6SM FEW030
     FM052330 07009KT P6SM FEW030
      AMD NOT SKED 0512/0603=



000
FTUS42 TJSJ 050528
TAFJMZ
TAF
TJMZ 050528Z 0506/0606 VRB06KT P6SM FEW030
     FM051400 27014KT P6SM FEW025 SCT050
     FM052200 08011KT P6SM FEW040
      AMD NOT SKED=



000
FTUS42 TJSJ 050528
TAFISX
TAF
TISX 050528Z 0506/0606 08012KT P6SM FEW022
     FM051400 09018KT P6SM FEW022 SCT050
     FM052300 08013KT P6SM VCSH FEW035=



000
FTUS42 TJSJ 050528
TAFKPK
TAF
TKPK 050528Z 0506/0606 07012KT P6SM FEW022
     FM051200 08017KT P6SM FEW022
     FM052200 06010KT P6SM SCT020
      AMD NOT SKED TIL 051100=



000
FTUS42 TJSJ 050528
TAFIST
TAF
TIST 050528Z 0506/0606 07012KT P6SM SCT028
     FM051400 07018KT P6SM FEW025 SCT050
     FM052300 09011KT P6SM FEW040=



000
FTUS42 TJSJ 050528
TAFNCM
TAF
TNCM 050528Z 0506/0606 09012KT P6SM SCT021
     FM051200 09014G22KT P6SM FEW018
     FM052200 08010KT P6SM SCT022=



000
FTUS42 TJSJ 050528
TAFIST
TAF
TIST 050528Z 0506/0606 07012KT P6SM SCT028
     FM051400 07018KT P6SM FEW025 SCT050
     FM052300 09011KT P6SM FEW040=



000
FTUS42 TJSJ 042332
TAFJPS
TAF
TJPS 042332Z 0500/0524 08010KT P6SM FEW030
     FM051400 14014KT P6SM FEW030
     FM052330 07009KT P6SM FEW030=



000
FTUS42 TJSJ 042332
TAFJBQ
TAF
TJBQ 042332Z 0500/0524 10018KT P6SM SCT020 SCT050
     FM050300 10011KT P6SM FEW025
     FM051400 08018KT P6SM FEW025 SCT050
      AMD NOT SKED 0502/0511=



000
FTUS42 TJSJ 042332
TAFNCM
TAF
TNCM 042332Z 0500/0524 09010KT P6SM SCT021
     FM051200 09014G22KT P6SM FEW018
     FM052200 08010KT P6SM SCT022=



000
FTUS42 TJSJ 042332
TAFISX
TAF
TISX 042332Z 0500/0524 07011G18KT P6SM SCT025
     FM050300 08011KT P6SM FEW022
     FM051400 09018KT P6SM FEW022 SCT050
     FM052300 08013KT P6SM VCSH FEW035=



000
FTUS42 TJSJ 042332
TAFJPS
TAF
TJPS 042332Z 0500/0524 08010KT P6SM FEW030
     FM051400 14014KT P6SM FEW030
     FM052330 07009KT P6SM FEW030=



000
FTUS42 TJSJ 042332
TAFIST
TAF
TIST 042332Z 0500/0524 07011KT P6SM SCT028
     FM051400 07018KT P6SM FEW025 SCT050
     FM052300 09011KT P6SM FEW040=



000
FTUS42 TJSJ 042332
TAFKPK
TAF
TKPK 042332Z 0500/0524 06015KT P6SM FEW018
     FM050300 07011KT P6SM FEW022
     FM051200 08017KT P6SM FEW022
     FM052200 06010KT P6SM SCT020
      AMD NOT SKED 0502/0511=



000
FTUS42 TJSJ 042332
TAFJSJ
TAF
TJSJ 042332Z 0500/0524 08011KT P6SM SCT022 SCT080
     FM051400 07018KT P6SM FEW025 SCT050
     FM052300 08012KT P6SM FEW025 SCT050=



000
FTUS42 TJSJ 042332
TAFJMZ
TAF
TJMZ 042332Z 0500/0524 VRB06KT P6SM FEW030
     FM051400 27014KT P6SM FEW025 SCT050
     FM052200 08011KT P6SM FEW040
      AMD NOT SKED=



000
FTUS42 TJSJ 042332
TAFJBQ
TAF
TJBQ 042332Z 0500/0524 10018KT P6SM SCT020 SCT050
     FM050300 10011KT P6SM FEW025
     FM051400 08018KT P6SM FEW025 SCT050
      AMD NOT SKED 0502/0511=



000
FTUS42 TJSJ 042332
TAFKPK
TAF
TKPK 042332Z 0500/0524 06015KT P6SM FEW018
     FM050300 07011KT P6SM FEW022
     FM051200 08017KT P6SM FEW022
     FM052200 06010KT P6SM SCT020
      AMD NOT SKED 0502/0511=



000
FTUS42 TJSJ 042332
TAFISX
TAF
TISX 042332Z 0500/0524 07011G18KT P6SM SCT025
     FM050300 08011KT P6SM FEW022
     FM051400 09018KT P6SM FEW022 SCT050
     FM052300 08013KT P6SM VCSH FEW035=



000
FTUS42 TJSJ 042332
TAFJMZ
TAF
TJMZ 042332Z 0500/0524 VRB06KT P6SM FEW030
     FM051400 27014KT P6SM FEW025 SCT050
     FM052200 08011KT P6SM FEW040
      AMD NOT SKED=



000
FTUS42 TJSJ 042332
TAFNCM
TAF
TNCM 042332Z 0500/0524 09010KT P6SM SCT021
     FM051200 09014G22KT P6SM FEW018
     FM052200 08010KT P6SM SCT022=



000
FTUS42 TJSJ 042332
TAFJSJ
TAF
TJSJ 042332Z 0500/0524 08011KT P6SM SCT022 SCT080
     FM051400 07018KT P6SM FEW025 SCT050
     FM052300 08012KT P6SM FEW025 SCT050=



000
FTUS42 TJSJ 042332
TAFIST
TAF
TIST 042332Z 0500/0524 07011KT P6SM SCT028
     FM051400 07018KT P6SM FEW025 SCT050
     FM052300 09011KT P6SM FEW040=



000
FTUS42 TJSJ 041850 AAB
TAFJMZ
TAF AMD
TJMZ 041850Z 0419/0518 28010KT P6SM SCT025 BKN040
     FM042200 08010KT P6SM FEW040
     FM051400 27010KT P6SM FEW025 SCT050
      AMD NOT SKED AFT 042200=



000
FTUS42 TJSJ 041815 AAA
TAFJMZ
TAF AMD
TJMZ 041815Z 0418/0518 28010KT P6SM SCT025 BKN040
      TEMPO 0418/0420 VRB10KT 6SM -SHRA
     FM042200 08010KT P6SM FEW040
     FM051400 27010KT P6SM FEW025 SCT050
      AMD NOT SKED AFT 042200=



000
FTUS42 TJSJ 041740
TAFKPK
TAF
TKPK 041740Z 0418/0518 06016KT P6SM FEW018
      AMD NOT SKED 0502/0511=



000
FTUS42 TJSJ 041740
TAFIST
TAF
TIST 041740Z 0418/0518 08018KT P6SM FEW035
     FM042300 09012KT P6SM FEW040
     FM051400 07018KT P6SM FEW025 SCT050=



000
FTUS42 TJSJ 041740
TAFJMZ
TAF
TJMZ 041740Z 0418/0518 28010KT P6SM SCT025 BKN040
     FM042200 08010KT P6SM FEW040
     FM051400 27010KT P6SM FEW025 SCT050
      AMD NOT SKED AFT 042200=



000
FTUS42 TJSJ 041740
TAFISX
TAF
TISX 041740Z 0418/0518 10020KT P6SM SCT025 SCT040
     FM042300 08013KT P6SM VCSH FEW035
     FM051400 09018KT P6SM FEW025 SCT050=



000
FTUS42 TJSJ 041740
TAFJSJ
TAF
TJSJ 041740Z 0418/0518 07020KT P6SM SCT025 SCT040
     FM042300 08012KT P6SM FEW025 SCT050
     FM051400 07018KT P6SM FEW025 SCT050=



000
FTUS42 TJSJ 041740
TAFJPS
TAF
TJPS 041740Z 0418/0518 14010G20KT P6SM FEW030
     FM042330 07007KT P6SM FEW030
     FM051400 14014KT P6SM FEW030
      AMD NOT SKED TIL 050300=



000
FTUS42 TJSJ 041740
TAFJBQ
TAF
TJBQ 041740Z 0418/0518 08020G30KT P6SM SCT025 SCT040
     FM050200 10013KT P6SM FEW025
     FM051400 08018KT P6SM FEW025 SCT050
      AMD NOT SKED 0502/0511=



000
FTUS42 TJSJ 041740
TAFNCM
TAF
TNCM 041740Z 0418/0518 09019KT P6SM SCT020
      TEMPO 0418/0420 BKN020
     FM050400 09012KT P6SM FEW018=



000
FTUS42 TJSJ 041740
TAFJBQ
TAF
TJBQ 041740Z 0418/0518 08020G30KT P6SM SCT025 SCT040
     FM050200 10013KT P6SM FEW025
     FM051400 08018KT P6SM FEW025 SCT050
      AMD NOT SKED 0502/0511=



000
FTUS42 TJSJ 041740
TAFKPK
TAF
TKPK 041740Z 0418/0518 06016KT P6SM FEW018
      AMD NOT SKED 0502/0511=



000
FTUS42 TJSJ 041740
TAFISX
TAF
TISX 041740Z 0418/0518 10020KT P6SM SCT025 SCT040
     FM042300 08013KT P6SM VCSH FEW035
     FM051400 09018KT P6SM FEW025 SCT050=



000
FTUS42 TJSJ 041740
TAFJSJ
TAF
TJSJ 041740Z 0418/0518 07020KT P6SM SCT025 SCT040
     FM042300 08012KT P6SM FEW025 SCT050
     FM051400 07018KT P6SM FEW025 SCT050=



000
FTUS42 TJSJ 041740
TAFJMZ
TAF
TJMZ 041740Z 0418/0518 28010KT P6SM SCT025 BKN040
     FM042200 08010KT P6SM FEW040
     FM051400 27010KT P6SM FEW025 SCT050
      AMD NOT SKED AFT 042200=



000
FTUS42 TJSJ 041740
TAFJPS
TAF
TJPS 041740Z 0418/0518 14010G20KT P6SM FEW030
     FM042330 07007KT P6SM FEW030
     FM051400 14014KT P6SM FEW030
      AMD NOT SKED TIL 050300=



000
FTUS42 TJSJ 041740
TAFIST
TAF
TIST 041740Z 0418/0518 08018KT P6SM FEW035
     FM042300 09012KT P6SM FEW040
     FM051400 07018KT P6SM FEW025 SCT050=



000
FTUS42 TJSJ 041740
TAFNCM
TAF
TNCM 041740Z 0418/0518 09019KT P6SM SCT020
      TEMPO 0418/0420 BKN020
     FM050400 09012KT P6SM FEW018=



000
FTUS42 TJSJ 041645 AAA
TAFNCM
TAF AMD
TNCM 041645Z 0417/0512 09015G25KT P6SM SCT020
     FM050400 09012KT P6SM FEW018=



000
FTUS42 TJSJ 041645 AAA
TAFNCM
TAF AMD
TNCM 041645Z 0417/0512 09015G25KT P6SM SCT020
     FM050400 09012KT P6SM FEW018=



000
FTUS42 TJSJ 041642 AAA
TAFKPK
TAF AMD
TKPK 041642Z 0417/0512 06016KT P6SM FEW018
      AMD NOT SKED 0502/0511=



000
FTUS42 TJSJ 041642 AAA
TAFKPK
TAF AMD
TKPK 041642Z 0417/0512 06016KT P6SM FEW018
      AMD NOT SKED 0502/0511=



000
FTUS42 TJSJ 041209 AAA
TAFISX
TAF AMD
TISX 041209Z 0412/0512 07018KT P6SM SCT025 SCT040
     FM041330 10020KT P6SM SCT025 SCT040
     FM042300 08014KT P6SM VCSH FEW035=



000
FTUS42 TJSJ 041209 AAA
TAFISX
TAF AMD
TISX 041209Z 0412/0512 07018KT P6SM SCT025 SCT040
     FM041330 10020KT P6SM SCT025 SCT040
     FM042300 08014KT P6SM VCSH FEW035=



000
FTUS42 TJSJ 041140
TAFISX
TAF
TISX 041140Z 0412/0512 07015KT P6SM SCT025 SCT040
     FM041330 10020KT P6SM SCT025 SCT040
     FM042300 08014KT P6SM VCSH FEW035=



000
FTUS42 TJSJ 041140
TAFJBQ
TAF
TJBQ 041140Z 0412/0512 10012KT P6SM SCT025
     FM041330 08018KT P6SM SCT025 SCT040
     FM041600 08020G30KT P6SM SCT025 SCT040
     FM042300 10013KT P6SM FEW025
      AMD NOT SKED 0502/0511=



000
FTUS42 TJSJ 041140
TAFIST
TAF
TIST 041140Z 0412/0512 09011G21KT P6SM SCT030 SCT045
     FM041330 10017KT P6SM FEW025 SCT050
     FM041800 07018KT P6SM FEW035
     FM042300 09012KT P6SM FEW040=



000
FTUS42 TJSJ 041140
TAFJPS
TAF
TJPS 041140Z 0412/0512 08007KT P6SM FEW025 FEW045
     FM041330 13017KT P6SM FEW025 FEW040
     FM042330 07007KT P6SM FEW030
      AMD NOT SKED 0503/0511=



000
FTUS42 TJSJ 041140
TAFNCM
TAF
TNCM 041140Z 0412/0512 09015KT P6SM FEW018 SCT050=



000
FTUS42 TJSJ 041140
TAFKPK
TAF
TKPK 041140Z 0412/0512 07016KT P6SM FEW018
      AMD NOT SKED 0502/0511=



000
FTUS42 TJSJ 041140
TAFJMZ
TAF
TJMZ 041140Z 0412/0512 10009KT P6SM SCT040
     FM041430 28010KT P6SM SCT025 SCT040
     FM042200 08010KT P6SM FEW040
      AMD NOT SKED=



000
FTUS42 TJSJ 041140
TAFJSJ
TAF
TJSJ 041140Z 0412/0512 10012KT P6SM FEW025 SCT070
     FM041330 07020KT P6SM SCT025 SCT040
     FM042300 08012KT P6SM VCSH FEW025 SCT050=



000
FTUS42 TJSJ 040539
TAFISX
TAF
TISX 040539Z 0406/0506 08014G22KT P6SM FEW022 FEW027 OVC060
     FM041330 10020G26KT P6SM SCT025 SCT040
     FM042300 08014KT P6SM VCSH FEW035=



000
FTUS42 TJSJ 040539
TAFKPK
TAF
TKPK 040539Z 0406/0506 07014KT P6SM VCSH FEW020
     FM041330 07018KT P6SM FEW022
     FM042300 07012KT P6SM FEW018
      AMD NOT SKED TIL 041100=



000
FTUS42 TJSJ 040539
TAFIST
TAF
TIST 040539Z 0406/0506 08012KT P6SM VCSH SCT018 OVC050
      TEMPO 0406/0410 BKN017 OVC050
     FM041330 10017KT P6SM SCT025 SCT040
     FM041800 07017G24KT P6SM FEW035
     FM042300 09012KT P6SM FEW040=



000
FTUS42 TJSJ 040539
TAFNCM
TAF
TNCM 040539Z 0406/0506 07012G24KT P6SM VCSH BKN018
     FM040900 08015KT P6SM SCT019
     FM041330 08015KT P6SM SCT025
     FM042300 09012KT P6SM VCSH FEW018 SCT050=



000
FTUS42 TJSJ 040539
TAFJPS
TAF
TJPS 040539Z 0406/0506 08007KT P6SM VCSH SCT030
     FM041330 14017KT P6SM FEW025 SCT040
     FM042330 07007KT P6SM FEW030=



000
FTUS42 TJSJ 040539
TAFJMZ
TAF
TJMZ 040539Z 0406/0506 07008KT P6SM FEW040
     FM041430 28008KT P6SM SCT025 SCT040
     FM042200 08010KT P6SM FEW040=



000
FTUS42 TJSJ 040539
TAFJBQ
TAF
TJBQ 040539Z 0406/0506 10009KT P6SM SCT025 SCT050
     FM041330 08020G28KT P6SM SCT025 SCT040
     FM042300 10013KT P6SM FEW025
     FM050400 10010KT P6SM SKC
      AMD NOT SKED TIL 041100=



000
FTUS42 TJSJ 040539
TAFJSJ
TAF
TJSJ 040539Z 0406/0506 08014G21KT P6SM VCSH FEW025 BKN060
     FM041330 07020KT P6SM SCT025 SCT040
     FM042300 08012KT P6SM VCSH FEW025 SCT050=



000
FTUS42 TJSJ 040241 AAA
TAFNCM
TAF AMD
TNCM 040241Z 0403/0424 08015KT P6SM VCSH BKN019
     FM041330 08015KT P6SM SCT025
     FM042300 09012KT P6SM VCSH FEW018 SCT050=



000
FTUS42 TJSJ 040241 AAA
TAFNCM
TAF AMD
TNCM 040241Z 0403/0424 08015KT P6SM VCSH BKN019
     FM041330 08015KT P6SM SCT025
     FM042300 09012KT P6SM VCSH FEW018 SCT050=



000
FTUS42 TJSJ 040240 AAA
TAFJPS
TAF AMD
TJPS 040240Z 0403/0424 10007KT P6SM VCSH FEW040
     FM041330 14020KT P6SM SCT025 SCT040
     FM042330 07007KT P6SM FEW030
      AMD NOT SKED TIL 040300=



000
FTUS42 TJSJ 040240 AAA
TAFIST
TAF AMD
TIST 040240Z 0403/0424 08007KT P6SM OVC060
     FM041330 10018KT P6SM SCT025 SCT040
     FM042300 09010KT P6SM VCSH FEW025 SCT050=



000
FTUS42 TJSJ 032325
TAFJSJ
TAF
TJSJ 032325Z 0400/0424 08014G22KT P6SM VCSH SCT040 SCT060
     FM041330 08020KT P6SM SCT025 SCT040
     FM042300 08012KT P6SM VCSH FEW025 SCT050=



000
FTUS42 TJSJ 032325
TAFJMZ
TAF
TJMZ 032325Z 0400/0424 10009KT P6SM VCSH SCT040
     FM041330 28020KT P6SM SCT025 SCT040
     FM042200 08010KT P6SM FEW040=



000
FTUS42 TJSJ 032325
TAFKPK
TAF
TKPK 032325Z 0400/0424 07013KT P6SM VCSH FEW018 BKN040
     FM041330 07014G24KT P6SM SCT025 SCT040
     FM042300 07012KT P6SM VCSH FEW018 SCT050
      AMD NOT SKED 0402/0411=



000
FTUS42 TJSJ 032325
TAFIST
TAF
TIST 032325Z 0400/0424 08017G23KT P6SM OVC023
     FM041330 10018KT P6SM SCT025 SCT040
     FM042300 09010KT P6SM VCSH FEW025 SCT050=



000
FTUS42 TJSJ 032325
TAFNCM
TAF
TNCM 032325Z 0400/0424 09014G25KT P6SM VCSH BKN019
     FM041330 08015KT P6SM SCT025
     FM042300 09012KT P6SM VCSH FEW018 SCT050=



000
FTUS42 TJSJ 032325
TAFISX
TAF
TISX 032325Z 0400/0424 08017G26KT P6SM SCT022
     FM041330 10020KT P6SM SCT025 SCT040
     FM042300 08012KT P6SM VCSH FEW025 SCT050=



000
FTUS42 TJSJ 032325
TAFJBQ
TAF
TJBQ 032325Z 0400/0424 08019G26KT P6SM SCT023 SCT060
     FM041330 08020KT P6SM SCT025 SCT040
     FM042300 10013KT P6SM FEW025
      AMD NOT SKED 0402/0411=



000
FTUS42 TJSJ 032325
TAFJPS
TAF
TJPS 032325Z 0400/0424 14015G22KT P6SM VCSH FEW030
     FM041330 14020KT P6SM SCT025 SCT040
     FM042330 07007KT P6SM FEW030
      AMD NOT SKED TIL 040300=



000
FTUS42 TJSJ 031757 AAA
TAFIST
TAF AMD
TIST 031757Z 0318/0418 08018KT P6SM SCT025 SCT035
     FM032300 09010KT P6SM VCSH FEW025 SCT050
     FM041330 10018KT P6SM SCT025 SCT040=



000
FTUS42 TJSJ 031757 AAA
TAFIST
TAF AMD
TIST 031757Z 0318/0418 08018KT P6SM SCT025 SCT035
     FM032300 09010KT P6SM VCSH FEW025 SCT050
     FM041330 10018KT P6SM SCT025 SCT040=



000
FTUS42 TJSJ 031756 AAA
TAFISX
TAF AMD
TISX 031756Z 0318/0418 09020KT P6SM SCT025 SCT040
     FM032300 08012KT P6SM VCSH FEW025 SCT050
     FM041330 10020KT P6SM SCT025 SCT040=



000
FTUS42 TJSJ 031756 AAA
TAFISX
TAF AMD
TISX 031756Z 0318/0418 09020KT P6SM SCT025 SCT040
     FM032300 08012KT P6SM VCSH FEW025 SCT050
     FM041330 10020KT P6SM SCT025 SCT040=



000
FTUS42 TJSJ 031756 AAA
TAFJSJ
TAF AMD
TJSJ 031756Z 0318/0418 08020KT P6SM VCSH SCT025 SCT040
      TEMPO 0318/0320 5SM SHRA BKN035
     FM032300 08012KT P6SM VCSH FEW025 SCT050
     FM041330 08020KT P6SM SCT025 SCT040=



000
FTUS42 TJSJ 031756 AAA
TAFJSJ
TAF AMD
TJSJ 031756Z 0318/0418 08020KT P6SM VCSH SCT025 SCT040
      TEMPO 0318/0320 5SM SHRA BKN035
     FM032300 08012KT P6SM VCSH FEW025 SCT050
     FM041330 08020KT P6SM SCT025 SCT040=



000
FTUS42 TJSJ 031740
TAFIST
TAF
TIST 031740Z 0318/0418 10018KT P6SM SCT025 SCT035
     FM032300 09010KT P6SM VCSH FEW025 SCT050
     FM041330 10018KT P6SM SCT025 SCT040=



000
FTUS42 TJSJ 031740
TAFJBQ
TAF
TJBQ 031740Z 0318/0418 08022KT P6SM VCSH SCT025 SCT040
     FM032300 10013KT P6SM FEW025
     FM041330 08020KT P6SM SCT025 SCT040
      AMD NOT SKED 0402/0411=



000
FTUS42 TJSJ 031740
TAFJPS
TAF
TJPS 031740Z 0318/0418 13015KT P6SM VCSH SCT030 SCT060
     FM032330 07007KT P6SM FEW030
     FM041330 14020KT P6SM SCT025 SCT040
      AMD NOT SKED TIL 040300=



000
FTUS42 TJSJ 031740
TAFJMZ
TAF
TJMZ 031740Z 0318/0418 27007KT P6SM VCSH SCT040 SCT060
     FM032200 08010KT P6SM FEW040
     FM041330 28020KT P6SM SCT025 SCT040=



000
FTUS42 TJSJ 031740
TAFKPK
TAF
TKPK 031740Z 0318/0418 07014G24KT P6SM VCSH SCT020 SCT030
     FM032300 07012KT P6SM VCSH FEW018 SCT050
     FM041330 07014G24KT P6SM SCT025 SCT040
      AMD NOT SKED 0402/0411=



000
FTUS42 TJSJ 031740
TAFNCM
TAF
TNCM 031740Z 0318/0418 09014G24KT P6SM VCSH SCT020
      TEMPO 0318/0320 BKN020
     FM032300 09012KT P6SM VCSH FEW018 SCT050
     FM041330 08015KT P6SM SCT025=



000
FTUS42 TJSJ 031740
TAFISX
TAF
TISX 031740Z 0318/0418 08020KT P6SM SCT025 SCT040
     FM032300 08012KT P6SM VCSH FEW025 SCT050
     FM041330 10020KT P6SM SCT025 SCT040=



000
FTUS42 TJSJ 031740
TAFJSJ
TAF
TJSJ 031740Z 0318/0418 08020KT P6SM VCSH SCT025 SCT040
     FM032300 08012KT P6SM VCSH FEW025 SCT050
     FM041330 08020KT P6SM SCT025 SCT040=



000
FTUS42 TJSJ 031417 AAA
TAFNCM
TAF AMD
TNCM 031417Z 0314/0412 09015G25KT P6SM VCSH SCT020
     FM032300 09012KT P6SM FEW018=



000
FTUS42 TJSJ 031306 AAA
TAFJBQ
TAF AMD
TJBQ 031306Z 0313/0412 08020KT P6SM VCSH SCT025 SCT040
      TEMPO 0313/0314 -SHRA BKN025 OVC045
     FM032300 10013KT P6SM FEW025
      AMD NOT SKED 0402/0411=



000
FTUS42 TJSJ 031306 AAA
TAFJBQ
TAF AMD
TJBQ 031306Z 0313/0412 08020KT P6SM VCSH SCT025 SCT040
      TEMPO 0313/0314 -SHRA BKN025 OVC045
     FM032300 10013KT P6SM FEW025
      AMD NOT SKED 0402/0411=



000
FTUS42 TJSJ 031140
TAFJSJ
TAF
TJSJ 031140Z 0312/0412 11010KT P6SM VCSH SCT025 BKN060
     FM031300 08020KT P6SM VCSH SCT025 SCT040
     FM032200 08011KT P6SM FEW025=



000
FTUS42 TJSJ 031140
TAFJMZ
TAF
TJMZ 031140Z 0312/0412 07007KT P6SM FEW040
     FM031500 27007KT P6SM VCSH SCT040 SCT060
     FM032200 08010KT P6SM FEW040
      AMD NOT SKED TIL 031500=



000
FTUS42 TJSJ 031140
TAFJPS
TAF
TJPS 031140Z 0312/0412 VRB05KT P6SM FEW030
     FM031400 13015KT P6SM VCSH SCT030 SCT060
     FM032330 07007KT P6SM FEW030
      AMD NOT SKED TIL 040300=



000
FTUS42 TJSJ 031140
TAFJBQ
TAF
TJBQ 031140Z 0312/0412 10012KT P6SM SCT025
     FM031430 08020KT P6SM VCSH SCT025 SCT040
     FM032300 10013KT P6SM FEW025
      AMD NOT SKED 0402/0411=



000
FTUS42 TJSJ 031140
TAFISX
TAF
TISX 031140Z 0312/0412 08018KT P6SM SCT025 SCT040
     FM032300 07009KT P6SM FEW025=



000
FTUS42 TJSJ 031140
TAFKPK
TAF
TKPK 031140Z 0312/0412 06015KT P6SM VCSH FEW020
      TEMPO 0312/0314 BKN017
     FM031400 07016KT P6SM VCSH SCT020 SCT030
     FM032300 07015KT P6SM FEW018
      AMD NOT SKED 0402/0411=



000
FTUS42 TJSJ 031140
TAFIST
TAF
TIST 031140Z 0312/0412 09018KT P6SM SCT025 SCT035
     FM032300 09009KT P6SM FEW025=



000
FTUS42 TJSJ 031140
TAFNCM
TAF
TNCM 031140Z 0312/0412 07012KT P6SM VCSH SCT018
      TEMPO 0312/0314 BKN017
     FM031400 09015KT P6SM VCSH SCT020 SCT030
     FM032300 09012KT P6SM FEW018=



000
FTUS42 TJSJ 030546
TAFIST
TAF
TIST 030546Z 0306/0406 08010KT P6SM VCSH SCT025 SCT035
     FM031200 09016G24KT P6SM VCSH SCT025 SCT035
     FM032300 09009KT P6SM FEW025=



000
FTUS42 TJSJ 030546
TAFJSJ
TAF
TJSJ 030546Z 0306/0406 08015KT P6SM FEW025 SCT050
     FM031300 08020G26KT P6SM VCSH SCT025 SCT040
     FM032200 08011KT P6SM FEW025=



000
FTUS42 TJSJ 030546
TAFISX
TAF
TISX 030546Z 0306/0406 07013KT P6SM VCSH SCT025 SCT035
     FM031200 10018G26KT P6SM VCSH SCT025 SCT040
     FM032300 07009KT P6SM FEW025=



000
FTUS42 TJSJ 030546
TAFJPS
TAF
TJPS 030546Z 0306/0406 VRB05KT P6SM FEW030 FEW060
     FM031400 13015G22KT P6SM SCT030 SCT060
     FM032330 07007KT P6SM FEW030
      AMD NOT SKED 0312/0403=



000
FTUS42 TJSJ 030546
TAFNCM
TAF
TNCM 030546Z 0306/0406 07012KT P6SM VCSH SCT018
     FM031300 09015G22KT P6SM VCSH SCT020 SCT030
     FM032300 09012KT P6SM FEW018=



000
FTUS42 TJSJ 030546
TAFKPK
TAF
TKPK 030546Z 0306/0406 06015KT P6SM VCSH FEW020
     FM031300 07016G23KT P6SM VCSH SCT020 SCT030
     FM032300 07015KT P6SM FEW018
      AMD NOT SKED TIL 031100=



000
FTUS42 TJSJ 030546
TAFJMZ
TAF
TJMZ 030546Z 0306/0406 07007KT P6SM FEW040
     FM031500 27007KT P6SM SCT040
     FM032200 08010KT P6SM FEW040
      AMD NOT SKED TIL 031500=



000
FTUS42 TJSJ 030546
TAFJBQ
TAF
TJBQ 030546Z 0306/0406 10013G20KT P6SM SCT025
     FM031330 08020G27KT P6SM SCT025 SCT040
     FM032300 10013KT P6SM FEW025
      AMD NOT SKED TIL 031100=



000
FTUS42 TJSJ 022320
TAFJMZ
TAF
TJMZ 022320Z 0300/0324 VRB04KT P6SM SCT040
     FM031500 25007KT P6SM FEW040
     FM032200 07006KT P6SM FEW040
      AMD NOT SKED=



000
FTUS42 TJSJ 022320
TAFJPS
TAF
TJPS 022320Z 0300/0324 VRB05KT P6SM FEW030
     FM031400 14012G20KT P6SM FEW030
     FM032330 07005KT P6SM FEW030
      AMD NOT SKED TIL 030300=



000
FTUS42 TJSJ 022320
TAFISX
TAF
TISX 022320Z 0300/0324 06010KT P6SM SCT023
     FM031200 10018G26KT P6SM VCSH FEW025
     FM032300 07009KT P6SM FEW025=



000
FTUS42 TJSJ 022320
TAFNCM
TAF
TNCM 022320Z 0300/0324 07009KT P6SM BKN022
     FM031300 09015KT P6SM FEW022
     FM032300 08011KT P6SM FEW018=



000
FTUS42 TJSJ 022320
TAFJSJ
TAF
TJSJ 022320Z 0300/0324 07015KT P6SM FEW028 SCT050
     FM031300 08018G26KT P6SM FEW030
     FM032200 09010KT P6SM FEW025=



000
FTUS42 TJSJ 022320
TAFKPK
TAF
TKPK 022320Z 0300/0324 06015KT P6SM VCSH FEW021
     FM031300 07016KT P6SM VCSH FEW022
      AMD NOT SKED 0302/0311=



000
FTUS42 TJSJ 022320
TAFJBQ
TAF
TJBQ 022320Z 0300/0324 10013G20KT P6SM SCT050
     FM031330 09018G27KT P6SM FEW025
     FM032300 10010KT P6SM FEW025
      AMD NOT SKED 0302/0311=



000
FTUS42 TJSJ 022320
TAFIST
TAF
TIST 022320Z 0300/0324 08010KT P6SM BKN018
     FM031200 09016G24KT P6SM FEW025
     FM032300 09009KT P6SM FEW025=



000
FTUS42 TJSJ 021720
TAFJMZ
TAF
TJMZ 021720Z 0218/0318 26008KT P6SM SCT040
     FM022200 07006KT P6SM FEW040
     FM031500 25007KT P6SM FEW040
      AMD NOT SKED=



000
FTUS42 TJSJ 021720
TAFJPS
TAF
TJPS 021720Z 0218/0318 13012G20KT P6SM FEW030
     FM022330 07005KT P6SM FEW030
     FM031400 14012G20KT P6SM FEW030
      AMD NOT SKED TIL 030300=



000
FTUS42 TJSJ 021720
TAFJMZ
TAF
TJMZ 021720Z 0218/0318 26008KT P6SM SCT040
     FM022200 07006KT P6SM FEW040
     FM031500 25007KT P6SM FEW040
      AMD NOT SKED=



000
FTUS42 TJSJ 021720
TAFJSJ
TAF
TJSJ 021720Z 0218/0318 08017G24KT P6SM FEW030
     FM022200 09010KT P6SM FEW025
     FM031300 08018G26KT P6SM FEW030=



000
FTUS42 TJSJ 021720
TAFIST
TAF
TIST 021720Z 0218/0318 10015G24KT P6SM FEW025
     FM022300 09009KT P6SM FEW025
     FM031200 09016G24KT P6SM FEW025=



000
FTUS42 TJSJ 021720
TAFISX
TAF
TISX 021720Z 0218/0318 10018G26KT P6SM FEW025
     FM022300 07009KT P6SM FEW025
     FM031200 10018G26KT P6SM VCSH FEW025=



000
FTUS42 TJSJ 021720
TAFJPS
TAF
TJPS 021720Z 0218/0318 13012G20KT P6SM FEW030
     FM022330 07005KT P6SM FEW030
     FM031400 14012G20KT P6SM FEW030
      AMD NOT SKED TIL 030300=



000
FTUS42 TJSJ 021720
TAFKPK
TAF
TKPK 021720Z 0218/0318 06015KT P6SM VCSH FEW022
     FM031300 07016KT P6SM VCSH FEW022
      AMD NOT SKED 0302/0311=



000
FTUS42 TJSJ 021720
TAFJBQ
TAF
TJBQ 021720Z 0218/0318 09019G29KT P6SM SCT025
     FM022300 10010KT P6SM FEW025
     FM031330 09018G27KT P6SM FEW025
      AMD NOT SKED 0302/0311=



000
FTUS42 TJSJ 021720
TAFNCM
TAF
TNCM 021720Z 0218/0318 09015KT P6SM FEW022
     FM022300 08011KT P6SM FEW018
     FM031300 09015KT P6SM FEW022=



000
FTUS42 TJSJ 021720
TAFJSJ
TAF
TJSJ 021720Z 0218/0318 08017G24KT P6SM FEW030
     FM022200 09010KT P6SM FEW025
     FM031300 08018G26KT P6SM FEW030=



000
FTUS42 TJSJ 021720
TAFISX
TAF
TISX 021720Z 0218/0318 10018G26KT P6SM FEW025
     FM022300 07009KT P6SM FEW025
     FM031200 10018G26KT P6SM VCSH FEW025=



000
FTUS42 TJSJ 021720
TAFIST
TAF
TIST 021720Z 0218/0318 10015G24KT P6SM FEW025
     FM022300 09009KT P6SM FEW025
     FM031200 09016G24KT P6SM FEW025=



000
FTUS42 TJSJ 021720
TAFKPK
TAF
TKPK 021720Z 0218/0318 06015KT P6SM VCSH FEW022
     FM031300 07016KT P6SM VCSH FEW022
      AMD NOT SKED 0302/0311=



000
FTUS42 TJSJ 021720
TAFJBQ
TAF
TJBQ 021720Z 0218/0318 09019G29KT P6SM SCT025
     FM022300 10010KT P6SM FEW025
     FM031330 09018G27KT P6SM FEW025
      AMD NOT SKED 0302/0311=



000
FTUS42 TJSJ 021720
TAFNCM
TAF
TNCM 021720Z 0218/0318 09015KT P6SM FEW022
     FM022300 08011KT P6SM FEW018
     FM031300 09015KT P6SM FEW022=



000
FTUS42 TJSJ 021129
TAFISX
TAF
TISX 021129Z 0212/0312 08010KT P6SM FEW025 FEW035 SCT080
     FM021230 10017G25KT P6SM FEW025 SCT080
     FM022300 07012KT P6SM FEW025=



000
FTUS42 TJSJ 021129
TAFJSJ
TAF
TJSJ 021129Z 0212/0312 10006KT P6SM FEW025 SCT035 SCT090
     FM021300 07016G22KT P6SM FEW025 SCT035 SCT080
     FM022200 09010KT P6SM FEW030=



000
FTUS42 TJSJ 021129
TAFJSJ
TAF
TJSJ 021129Z 0212/0312 10006KT P6SM FEW025 SCT035 SCT090
     FM021300 07016G22KT P6SM FEW025 SCT035 SCT080
     FM022200 09010KT P6SM FEW030=



000
FTUS42 TJSJ 021129
TAFISX
TAF
TISX 021129Z 0212/0312 08010KT P6SM FEW025 FEW035 SCT080
     FM021230 10017G25KT P6SM FEW025 SCT080
     FM022300 07012KT P6SM FEW025=



000
FTUS42 TJSJ 021129
TAFJBQ
TAF
TJBQ 021129Z 0212/0312 11014G21KT P6SM FEW030 SCT080
     FM021400 07019G30KT P6SM SCT025 SCT090
     FM022300 09012KT P6SM SCT025
      AMD NOT SKED 0302/0311=



000
FTUS42 TJSJ 021129
TAFJPS
TAF
TJPS 021129Z 0212/0312 08006KT P6SM SCT050 SCT090
     FM021500 15015G20KT P6SM SCT030 SCT080
     FM022330 07007KT P6SM FEW030=



000
FTUS42 TJSJ 021129
TAFNCM
TAF
TNCM 021129Z 0212/0312 09010KT P6SM SCT018
      TEMPO 0212/0213 BKN016
     FM021300 10015G20KT P6SM FEW025
     FM022300 09013KT P6SM FEW022=



000
FTUS42 TJSJ 021129
TAFKPK
TAF
TKPK 021129Z 0212/0312 07015KT P6SM FEW018
     FM021300 07017G24KT P6SM FEW020
     FM022300 06015KT P6SM FEW025
      AMD NOT SKED 0302/0311=



000
FTUS42 TJSJ 021129
TAFIST
TAF
TIST 021129Z 0212/0312 09012G20KT P6SM FEW025 SCT035 SCT080
     FM021330 11015G20KT P6SM FEW025 SCT035 SCT080
     FM022300 09012KT P6SM FEW025=



000
FTUS42 TJSJ 021129
TAFJMZ
TAF
TJMZ 021129Z 0212/0312 08007KT P6SM FEW025 SCT090
     FM021530 26010KT P6SM SCT030 SCT080
     FM022200 07006KT P6SM FEW040
      AMD NOT SKED TIL 021500=



000
FTUS42 TJSJ 021129
TAFJMZ
TAF
TJMZ 021129Z 0212/0312 08007KT P6SM FEW025 SCT090
     FM021530 26010KT P6SM SCT030 SCT080
     FM022200 07006KT P6SM FEW040
      AMD NOT SKED TIL 021500=



000
FTUS42 TJSJ 021129
TAFIST
TAF
TIST 021129Z 0212/0312 09012G20KT P6SM FEW025 SCT035 SCT080
     FM021330 11015G20KT P6SM FEW025 SCT035 SCT080
     FM022300 09012KT P6SM FEW025=



000
FTUS42 TJSJ 021129
TAFKPK
TAF
TKPK 021129Z 0212/0312 07015KT P6SM FEW018
     FM021300 07017G24KT P6SM FEW020
     FM022300 06015KT P6SM FEW025
      AMD NOT SKED 0302/0311=



000
FTUS42 TJSJ 021129
TAFNCM
TAF
TNCM 021129Z 0212/0312 09010KT P6SM SCT018
      TEMPO 0212/0213 BKN016
     FM021300 10015G20KT P6SM FEW025
     FM022300 09013KT P6SM FEW022=



000
FTUS42 TJSJ 021129
TAFJPS
TAF
TJPS 021129Z 0212/0312 08006KT P6SM SCT050 SCT090
     FM021500 15015G20KT P6SM SCT030 SCT080
     FM022330 07007KT P6SM FEW030=



000
FTUS42 TJSJ 021129
TAFJBQ
TAF
TJBQ 021129Z 0212/0312 11014G21KT P6SM FEW030 SCT080
     FM021400 07019G30KT P6SM SCT025 SCT090
     FM022300 09012KT P6SM SCT025
      AMD NOT SKED 0302/0311=



    US Dept of Commerce
    National Oceanic and Atmospheric Administration
    National Weather Service
    1325 East West Highway
    Silver Spring, MD 20910
    Page Author: NWS Internet Services Team
Disclaimer
Information Quality
Credits
Glossary
Privacy Policy
Freedom of Information Act (FOIA)
About Us
Career Opportunities